METAR Data
IDs: Format: Raw Decoded Include TAF

Data at: 2349 UTC 24 Apr 2019

PAMR 242253Z 29006KT 10SM SCT070 07/M05 A3007 RMK AO2 SLP184 T00671050
PAMR 242153Z 29008KT 10SM CLR 05/M04 A3008 RMK AO2 SLP186 T00501039
PAMR 242053Z 28007KT 10SM CLR 06/M04 A3008 RMK AO2 SLP188 T00561039 51005
PAMR 241953Z 02004KT 10SM FEW060 04/M03 A3008 RMK AO2 SLP187 T00441028
PAMR 241853Z 35004KT 10SM SCT060 02/M03 A3008 RMK AO2 SLP187 T00221028
PAMR 241753Z 00000KT 10SM BKN080 01/M03 A3007 RMK AO2 SLP184 T00061033 10006 21028 51010
PAMR 241653Z 00000KT 10SM FEW080 M01/M04 A3006 RMK AO2 SLP182 T10111039
PAMR 241553Z 05003KT 10SM CLR M02/M05 A3005 RMK AO2 SLP176 T10171050
PAMR 241453Z 00000KT 10SM FEW025 SCT060 BKN200 M03/M06 A3004 RMK AO2 SLP174 T10281056 51007
PAMR 241353Z 00000KT 10SM FEW025 SCT060 BKN140 M02/M04 A3003 RMK AO2 SLP172 T10221044
PAMR 241253Z 00000KT 10SM FEW015 SCT060 BKN080 M02/M04 A3003 RMK AO2 SLP169 T10221044
PAMR 241153Z 13003KT 10SM FEW015 BKN075 M02/M04 A3002 RMK AO2 SLP166 60000 T10221044 10011 21022 51015
PAMR 241053Z 00000KT 10SM FEW015 SCT070 M02/M04 A3001 RMK AO2 SLP164 T10171044
PAMR 240953Z 18005KT 10SM FEW015 BKN075 BKN200 M01/M04 A2999 RMK AO2 SNE37 SLP159 P0000 T10061039
PAMR 240937Z 18003KT 5SM BR SCT010 BKN075 BKN200 M01/M03 A2999 RMK AO2 SNE37 P0000 T10111033
PAMR 240853Z 18005KT 2SM -SN BR SCT013 BKN070 BKN200 M01/M03 A2997 RMK AO2 SNB52 SLP151 P0000 60000 T10061028 400501022 51021
PAMR 240753Z 20005KT 10SM FEW020 BKN070 BKN200 M01/M03 A2995 RMK AO2 SLP144 T10061033
PAMR 240653Z 15004KT 10SM FEW020 SCT070 BKN200 00/M04 A2993 RMK AO2 SLP138 T00001039
PAMR 240553Z 20004KT 10SM SCT020 BKN075 01/M04 A2991 RMK AO2 SLP130 T00111044 10050 20011 53017
PAMR 240453Z 26004KT 10SM FEW025 SCT045 BKN080 02/M04 A2989 RMK AO2 SLP122 T00171039
PAMR 240353Z 25004KT 10SM SCT080 02/M03 A2987 RMK AO2 SLP117 T00171028
PAMR 240253Z 21009KT 10SM SCT040 02/M03 A2986 RMK AO2 SLP113 T00171033 53010
PAMR 240153Z 09006KT 10SM BKN043 OVC055 03/M04 A2984 RMK AO2 SLP108 T00281044
PAMR 240053Z 00000KT 10SM OVC055 04/M06 A2984 RMK AO2 SLP105 T00391061
PAMR 232353Z 00000KT 10SM SCT035 BKN047 BKN080 04/M06 A2983 RMK AO2 SLP103 T00391056 10039 20000 51010
PAMR 232253Z 24004KT 10SM OVC041 03/M06 A2982 RMK AO2 SLP099 T00331056
PAMR 232153Z 00000KT 10SM FEW040 SCT100 02/M06 A2981 RMK AO2 SLP096 T00221061
PAMR 232053Z 00000KT 10SM SCT036 02/M07 A2980 RMK AO2 SLP092 T00221067 53014
PAMR 231953Z 00000KT 10SM SCT036 02/M07 A2979 RMK AO2 SLP088 T00171067
PAMR 231853Z 00000KT 10SM BKN041 01/M07 A2977 RMK AO2 SLP082 T00111072
PAMR 231753Z 21004KT 10SM OVC040 01/M07 A2976 RMK AO2 SLP079 T00061072 10006 21017 51021
PAMR 231653Z 13004KT 10SM OVC042 M01/M06 A2974 RMK AO2 SLP072 T10061061
PAMR 231553Z 00000KT 10SM FEW010 SCT038 BKN055 M02/M06 A2972 RMK AO2 SLP065 T10171061
PAMR 231453Z 00000KT 10SM FEW010 SCT038 BKN055 M02/M06 A2969 RMK AO2 SLP057 T10171061 53014
PAMR 231353Z 00000KT 10SM FEW009 SCT038 OVC065 M02/M06 A2968 RMK AO2 SLP052 T10171061
PAMR 231253Z 13003KT 10SM FEW007 BKN038 OVC060 M02/M06 A2967 RMK AO2 SLP048 T10171056
PAMR 231153Z 14004KT 10SM FEW007 BKN038 OVC060 M01/M06 A2966 RMK AO2 SNB20E31 SLP044 P0000 60001 70035 T10111061 10006 21022 51015